Time;durP1;ratioP1;P1;durP2;ratioP2;P2;SDS_P1;SDS_P2;PMS_P1;PMS_P2;Temp;Humidity;BMP_temperature;BMP_pressure;BME280_temperature;BME280_humidity;BME280_pressure;Samples;Min_cycle;Max_cycle;Signal;HPM_P1;HPM_P2
2024/03/01 00:02:10;;;;;;;82.47;42.30;;;4.50;99.90;;;;;;4986968;28;20039;-75
2024/03/01 00:04:37;;;;;;;78.00;41.97;;;4.40;99.90;;;;;;4980514;28;20583;-75
2024/03/01 00:07:04;;;;;;;84.47;43.67;;;4.40;99.90;;;;;;4949986;28;20054;-75
2024/03/01 00:09:32;;;;;;;90.90;44.28;;;4.30;99.90;;;;;;4945690;28;20071;-74
2024/03/01 00:11:59;;;;;;;90.20;44.67;;;4.30;99.90;;;;;;4953514;28;20713;-75
2024/03/01 00:14:26;;;;;;;87.85;42.75;;;4.20;99.90;;;;;;4946542;28;20042;-75
2024/03/01 00:16:53;;;;;;;91.35;43.83;;;4.30;99.90;;;;;;4966197;28;20038;-75
2024/03/01 00:19:20;;;;;;;85.95;42.65;;;4.30;99.90;;;;;;4959871;28;20046;-74
2024/03/01 00:21:48;;;;;;;80.18;40.90;;;4.20;99.90;;;;;;4978894;28;20057;-74
2024/03/01 00:24:15;;;;;;;91.47;45.15;;;4.30;99.90;;;;;;4987404;28;20046;-75
2024/03/01 00:26:48;;;;;;;87.75;42.83;;;4.30;99.90;;;;;;4973436;28;20539;-75
2024/03/01 00:29:15;;;;;;;82.10;41.72;;;4.30;99.90;;;;;;4961021;28;20086;-75
2024/03/01 00:31:42;;;;;;;88.60;44.55;;;4.30;99.90;;;;;;4965314;28;20065;-75
2024/03/01 00:34:09;;;;;;;94.47;47.92;;;4.30;99.90;;;;;;4956282;28;20506;-75
2024/03/01 00:36:36;;;;;;;88.47;42.58;;;4.30;99.90;;;;;;4972112;28;20046;-75
2024/03/01 00:39:03;;;;;;;85.28;42.83;;;4.40;99.90;;;;;;4948571;28;20046;-75
2024/03/01 00:41:29;;;;;;;86.43;42.85;;;4.40;99.90;;;;;;4969848;28;20035;-75
2024/03/01 00:43:58;;;;;;;82.72;41.63;;;4.50;99.90;;;;;;4968080;28;20054;-74
2024/03/01 00:46:26;;;;;;;75.35;36.33;;;4.50;99.90;;;;;;4955345;28;20118;-75
2024/03/01 00:48:54;;;;;;;83.43;41.30;;;4.60;99.90;;;;;;4959516;28;20208;-75
2024/03/01 00:51:21;;;;;;;79.78;41.55;;;4.70;99.90;;;;;;4953234;28;20130;-75
2024/03/01 00:53:49;;;;;;;74.72;39.13;;;4.80;99.90;;;;;;4947335;28;20117;-76
2024/03/01 00:56:16;;;;;;;75.95;39.30;;;4.70;99.90;;;;;;4947744;28;20057;-74
2024/03/01 00:58:43;;;;;;;76.68;39.05;;;4.50;99.90;;;;;;4943110;28;20050;-74
2024/03/01 01:01:11;;;;;;;82.47;40.65;;;4.40;99.90;;;;;;4952073;28;20113;-74
2024/03/01 01:03:38;;;;;;;83.90;42.60;;;4.40;99.90;;;;;;4944949;28;20058;-74
2024/03/01 01:06:05;;;;;;;84.93;42.90;;;4.40;99.90;;;;;;4950754;28;20054;-75
2024/03/01 01:08:31;;;;;;;78.85;38.75;;;4.30;99.90;;;;;;4929856;28;20109;-75
2024/03/01 01:10:58;;;;;;;85.78;42.03;;;4.50;99.90;;;;;;4948068;28;20046;-75
2024/03/01 01:13:26;;;;;;;84.30;42.00;;;4.50;99.90;;;;;;4949002;28;20506;-75
2024/03/01 01:15:54;;;;;;;81.80;42.03;;;4.40;99.90;;;;;;4954344;28;20152;-75
2024/03/01 01:18:21;;;;;;;88.95;40.80;;;4.30;99.90;;;;;;4968244;28;20085;-75
2024/03/01 01:20:47;;;;;;;88.22;43.42;;;4.40;99.90;;;;;;4949650;28;20051;-75
2024/03/01 01:23:14;;;;;;;83.35;42.88;;;4.50;99.90;;;;;;4970151;28;20598;-75
2024/03/01 01:25:42;;;;;;;84.65;40.58;;;4.50;99.90;;;;;;4963690;28;20478;-74
2024/03/01 01:28:09;;;;;;;81.72;41.22;;;4.30;99.90;;;;;;4968403;28;20048;-75
2024/03/01 01:30:37;;;;;;;81.53;39.88;;;4.30;99.90;;;;;;4964449;28;20049;-75
2024/03/01 01:33:04;;;;;;;97.15;42.67;;;4.20;99.90;;;;;;4955223;28;20067;-75
2024/03/01 01:35:32;;;;;;;76.85;36.10;;;4.30;99.90;;;;;;4958189;28;20061;-75
2024/03/01 01:37:59;;;;;;;81.03;38.83;;;4.50;99.90;;;;;;4964221;28;20050;-74
2024/03/01 01:40:30;;;;;;;81.13;40.08;;;4.50;99.90;;;;;;4966985;28;20050;-74
2024/03/01 01:43:04;;;;;;;86.15;41.30;;;4.50;99.90;;;;;;4947981;28;20217;-75
2024/03/01 01:45:32;;;;;;;77.97;38.78;;;4.50;99.90;;;;;;4965966;28;20101;-74
2024/03/01 01:48:02;;;;;;;85.40;38.30;;;4.50;99.90;;;;;;4970285;28;20066;-74
2024/03/01 01:50:31;;;;;;;78.40;37.85;;;4.50;99.90;;;;;;4970432;28;20113;-74
2024/03/01 01:52:59;;;;;;;88.80;40.83;;;4.50;99.90;;;;;;4962938;28;20599;-74
2024/03/01 01:55:27;;;;;;;82.38;41.08;;;4.60;99.90;;;;;;4973549;28;20078;-75
2024/03/01 01:57:54;;;;;;;82.18;40.10;;;4.60;99.90;;;;;;4968532;28;20251;-74
2024/03/01 02:00:21;;;;;;;86.18;39.45;;;4.60;99.90;;;;;;4970849;28;20129;-74
2024/03/01 02:02:50;;;;;;;84.28;38.28;;;4.60;99.90;;;;;;4972217;28;20042;-74
2024/03/01 02:05:18;;;;;;;83.65;40.35;;;4.60;99.90;;;;;;4970100;28;20074;-74
2024/03/01 02:07:46;;;;;;;75.97;36.10;;;4.70;99.90;;;;;;4977793;28;20094;-74
2024/03/01 02:10:16;;;;;;;84.55;39.47;;;4.60;99.90;;;;;;4974047;28;20042;-75
2024/03/01 02:12:58;;;;;;;79.32;38.05;;;4.60;99.90;;;;;;4963525;28;20054;-75
2024/03/01 02:15:26;;;;;;;83.65;39.47;;;4.70;99.90;;;;;;4953241;28;20062;-75
2024/03/01 02:17:54;;;;;;;88.00;40.58;;;4.60;99.90;;;;;;4950104;28;20141;-75
2024/03/01 02:20:24;;;;;;;83.95;39.10;;;4.60;99.90;;;;;;4966869;28;20496;-75
2024/03/01 02:22:58;;;;;;;79.43;37.22;;;4.60;99.90;;;;;;4965267;28;21839;-75
2024/03/01 02:25:25;;;;;;;82.05;38.58;;;4.60;99.90;;;;;;4961332;28;20450;-74
2024/03/01 02:27:52;;;;;;;88.75;41.85;;;4.60;99.90;;;;;;4962839;28;21089;-74
2024/03/01 02:30:18;;;;;;;79.53;40.80;;;4.60;99.90;;;;;;4969768;28;20046;-74
2024/03/01 02:32:46;;;;;;;80.75;38.70;;;4.60;99.90;;;;;;4949955;28;20049;-74
2024/03/01 02:35:12;;;;;;;87.72;41.67;;;4.50;99.90;;;;;;4966464;28;20607;-74
2024/03/01 02:37:42;;;;;;;84.80;39.38;;;4.50;99.90;;;;;;4957208;28;20053;-74
2024/03/01 02:40:09;;;;;;;86.05;40.47;;;4.50;99.90;;;;;;4973764;28;20054;-75
2024/03/01 02:42:36;;;;;;;81.00;41.25;;;4.50;99.90;;;;;;4958832;28;20042;-75
2024/03/01 02:45:03;;;;;;;80.68;40.78;;;4.50;99.90;;;;;;4960941;28;20051;-74
2024/03/01 02:47:30;;;;;;;93.28;40.13;;;4.50;99.90;;;;;;4965932;28;20080;-75
2024/03/01 02:49:57;;;;;;;87.78;42.80;;;4.50;99.90;;;;;;4955825;28;20053;-75
2024/03/01 02:52:24;;;;;;;95.20;40.78;;;4.50;99.90;;;;;;4961229;28;20043;-75
2024/03/01 02:54:51;;;;;;;90.43;40.72;;;4.50;99.90;;;;;;4958141;28;21559;-74
2024/03/01 02:57:18;;;;;;;88.30;42.70;;;4.40;99.90;;;;;;4963721;28;20121;-75
2024/03/01 02:59:44;;;;;;;83.38;39.53;;;4.40;99.90;;;;;;4953131;28;20137;-75
2024/03/01 03:02:11;;;;;;;88.63;40.70;;;4.40;99.90;;;;;;4976849;28;20129;-75
2024/03/01 03:04:38;;;;;;;92.10;41.95;;;4.30;99.90;;;;;;4954354;28;20045;-75
2024/03/01 03:07:05;;;;;;;87.93;41.25;;;4.30;99.90;;;;;;4975592;28;20137;-75
2024/03/01 03:09:43;;;;;;;95.80;43.67;;;4.30;99.90;;;;;;4970577;28;20046;-75
2024/03/01 03:12:13;;;;;;;82.47;40.92;;;4.20;99.90;;;;;;4973326;28;20045;-76
2024/03/01 03:14:40;;;;;;;106.35;43.00;;;4.20;99.90;;;;;;4969476;28;20046;-77
2024/03/01 03:17:07;;;;;;;83.45;40.17;;;4.20;99.90;;;;;;4948172;28;20426;-77
2024/03/01 03:19:34;;;;;;;101.75;43.53;;;4.20;99.90;;;;;;4975577;28;20699;-77
2024/03/01 03:22:08;;;;;;;91.70;42.20;;;4.20;99.90;;;;;;4963976;28;20046;-75
2024/03/01 03:24:40;;;;;;;88.43;41.40;;;4.20;99.90;;;;;;4964133;28;20042;-75
2024/03/01 03:27:07;;;;;;;89.72;39.78;;;4.20;99.90;;;;;;4967595;28;20137;-77
2024/03/01 03:29:35;;;;;;;88.47;42.25;;;4.20;99.90;;;;;;4965552;28;20635;-77
2024/03/01 03:32:05;;;;;;;96.35;40.97;;;4.20;99.90;;;;;;4973753;28;20195;-77
2024/03/01 03:34:33;;;;;;;95.35;43.55;;;4.10;99.90;;;;;;4966982;28;20046;-77
2024/03/01 03:37:01;;;;;;;92.32;39.75;;;4.00;99.90;;;;;;4947158;28;20047;-76
2024/03/01 03:39:28;;;;;;;97.38;42.67;;;4.00;99.90;;;;;;4946748;28;20068;-77
2024/03/01 03:41:55;;;;;;;93.60;41.35;;;4.00;99.90;;;;;;4959752;28;20046;-77
2024/03/01 03:44:22;;;;;;;104.95;42.97;;;3.70;99.90;;;;;;4967366;28;20062;-77
2024/03/01 03:46:49;;;;;;;98.50;43.95;;;3.70;99.90;;;;;;4957968;28;20050;-77
2024/03/01 03:49:16;;;;;;;90.47;42.50;;;3.60;99.90;;;;;;4964679;28;20061;-76
2024/03/01 03:51:43;;;;;;;99.78;43.38;;;3.70;99.90;;;;;;4947713;28;20046;-76
2024/03/01 03:54:13;;;;;;;104.15;40.97;;;3.70;99.90;;;;;;4947038;28;20051;-77
2024/03/01 03:56:41;;;;;;;105.30;44.97;;;3.80;99.90;;;;;;4944027;28;20054;-77
2024/03/01 03:59:08;;;;;;;103.75;44.20;;;3.90;99.90;;;;;;4944572;28;20070;-77
2024/03/01 04:01:36;;;;;;;107.57;44.95;;;3.90;99.90;;;;;;4946080;28;20058;-77
2024/03/01 04:04:04;;;;;;;103.93;44.63;;;4.00;99.90;;;;;;4944752;28;20051;-77
2024/03/01 04:06:32;;;;;;;102.40;44.78;;;4.00;99.90;;;;;;4959768;28;20109;-75
2024/03/01 04:08:59;;;;;;;102.57;45.85;;;4.00;99.90;;;;;;4960834;28;20046;-75
2024/03/01 04:11:27;;;;;;;104.13;45.85;;;3.90;99.90;;;;;;4947993;28;20200;-75
2024/03/01 04:13:54;;;;;;;105.90;44.97;;;3.90;99.90;;;;;;4941298;28;20042;-74
2024/03/01 04:16:21;;;;;;;97.72;43.38;;;3.90;99.90;;;;;;4948067;28;20046;-75
2024/03/01 04:18:48;;;;;;;105.45;45.72;;;3.90;99.90;;;;;;4940849;28;20054;-75
2024/03/01 04:21:15;;;;;;;104.47;46.13;;;3.90;99.90;;;;;;4948722;28;20043;-75
2024/03/01 04:23:43;;;;;;;110.00;47.38;;;3.90;99.90;;;;;;4946325;28;20050;-75
2024/03/01 04:26:10;;;;;;;119.82;46.55;;;4.00;99.90;;;;;;4971462;28;20554;-75
2024/03/01 04:28:41;;;;;;;96.05;42.75;;;3.90;99.90;;;;;;4966709;28;20061;-74
2024/03/01 04:31:08;;;;;;;107.60;44.40;;;3.90;99.90;;;;;;4968115;28;20047;-74
2024/03/01 04:33:39;;;;;;;110.45;47.70;;;4.00;99.90;;;;;;4965809;28;20131;-74
2024/03/01 04:36:06;;;;;;;105.55;42.72;;;4.00;99.90;;;;;;4958673;28;20144;-75
2024/03/01 04:38:33;;;;;;;98.85;44.67;;;4.00;99.90;;;;;;4969334;28;20689;-74
2024/03/01 04:41:00;;;;;;;104.47;46.65;;;4.00;99.90;;;;;;4966623;28;20035;-74
2024/03/01 04:43:27;;;;;;;107.63;46.58;;;4.00;99.90;;;;;;4969538;28;20050;-77
2024/03/01 04:45:55;;;;;;;107.38;46.40;;;3.90;99.90;;;;;;4957725;28;20074;-77
2024/03/01 04:48:22;;;;;;;110.63;45.78;;;3.80;99.90;;;;;;4983408;28;20047;-77
2024/03/01 04:50:48;;;;;;;107.88;46.10;;;3.80;99.90;;;;;;4970690;28;20042;-77
2024/03/01 04:53:15;;;;;;;119.70;47.95;;;3.80;99.90;;;;;;4936722;28;20049;-76
2024/03/01 04:55:42;;;;;;;113.30;47.25;;;3.80;99.90;;;;;;4965292;28;20477;-76
2024/03/01 04:58:09;;;;;;;109.40;46.53;;;3.90;99.90;;;;;;4952411;28;20089;-77
2024/03/01 05:00:36;;;;;;;104.50;44.95;;;3.90;99.90;;;;;;4959061;28;20047;-77
2024/03/01 05:03:06;;;;;;;102.93;46.30;;;3.90;99.90;;;;;;4965513;28;22432;-75
2024/03/01 05:05:34;;;;;;;107.20;47.85;;;4.00;99.90;;;;;;4965372;28;20042;-75
2024/03/01 05:08:01;;;;;;;109.30;46.60;;;4.00;99.90;;;;;;4946240;28;20050;-75
2024/03/01 05:10:28;;;;;;;102.80;46.15;;;4.00;99.90;;;;;;4968026;28;20053;-75
2024/03/01 05:12:55;;;;;;;103.80;46.75;;;4.10;99.90;;;;;;4964884;28;20050;-74
2024/03/01 05:15:22;;;;;;;108.00;47.63;;;4.10;99.90;;;;;;4950942;28;20066;-75
2024/03/01 05:17:49;;;;;;;103.07;45.67;;;4.20;99.90;;;;;;4960875;28;20109;-77
2024/03/01 05:20:16;;;;;;;86.25;41.00;;;4.20;99.90;;;;;;4964308;28;20098;-76
2024/03/01 05:22:43;;;;;;;93.28;39.67;;;4.20;99.90;;;;;;4965413;28;20049;-76
2024/03/01 05:25:17;;;;;;;96.28;43.13;;;4.20;99.90;;;;;;4966314;28;20105;-76
2024/03/01 05:27:47;;;;;;;89.40;41.88;;;4.20;99.90;;;;;;4964022;28;20584;-77
2024/03/01 05:30:19;;;;;;;105.55;43.08;;;4.20;99.90;;;;;;4966486;28;20047;-77
2024/03/01 05:33:09;;;;;;;99.60;40.00;;;4.20;99.90;;;;;;4963467;28;20159;-77
2024/03/01 05:35:37;;;;;;;67.32;30.65;;;4.20;99.90;;;;;;4976287;28;20655;-74
2024/03/01 05:38:04;;;;;;;91.10;41.15;;;4.20;99.90;;;;;;4969698;28;20085;-74
2024/03/01 05:40:30;;;;;;;101.00;41.53;;;4.30;99.90;;;;;;4966948;28;20215;-75
2024/03/01 05:43:09;;;;;;;98.18;42.00;;;4.30;99.90;;;;;;4948925;28;20050;-75
2024/03/01 05:45:36;;;;;;;100.88;42.38;;;4.20;99.90;;;;;;4965199;28;20046;-75
2024/03/01 05:48:04;;;;;;;106.57;44.05;;;4.20;99.90;;;;;;4963727;28;20664;-75
2024/03/01 05:50:31;;;;;;;99.05;44.80;;;4.30;99.90;;;;;;4979565;28;20104;-75
2024/03/01 05:52:58;;;;;;;96.75;41.08;;;4.30;99.90;;;;;;4975939;28;20046;-74
2024/03/01 05:55:26;;;;;;;100.55;44.72;;;4.30;99.90;;;;;;4962223;28;20049;-78
2024/03/01 05:57:53;;;;;;;107.45;44.75;;;4.30;99.90;;;;;;4942049;28;20531;-77
2024/03/01 06:00:25;;;;;;;100.93;43.83;;;4.30;99.90;;;;;;4962596;28;20050;-76
2024/03/01 06:02:52;;;;;;;103.93;45.38;;;4.30;99.90;;;;;;4943233;28;20059;-77
2024/03/01 06:05:24;;;;;;;105.25;44.97;;;4.40;99.90;;;;;;4947943;28;20047;-75
2024/03/01 06:07:51;;;;;;;102.32;48.20;;;4.40;99.90;;;;;;4964676;28;20042;-75
2024/03/01 06:10:18;;;;;;;112.90;47.47;;;4.50;99.90;;;;;;4934970;28;20062;-74
2024/03/01 06:12:45;;;;;;;98.47;45.30;;;4.50;99.90;;;;;;4941000;28;20118;-75
2024/03/01 06:15:12;;;;;;;100.90;45.67;;;4.50;99.90;;;;;;4940122;28;20053;-75
2024/03/01 06:17:38;;;;;;;92.57;42.53;;;4.60;99.90;;;;;;4942776;28;20047;-75
2024/03/01 06:20:07;;;;;;;105.43;46.58;;;4.60;99.90;;;;;;4940860;28;20047;-75
2024/03/01 06:22:35;;;;;;;92.47;43.70;;;4.70;99.90;;;;;;4948930;28;20047;-76
2024/03/01 06:25:02;;;;;;;89.75;41.95;;;4.80;99.90;;;;;;4941464;28;20057;-74
2024/03/01 06:27:31;;;;;;;92.97;44.60;;;4.80;99.90;;;;;;4933310;28;20507;-75
2024/03/01 06:29:58;;;;;;;97.03;43.05;;;4.80;99.90;;;;;;4953851;28;20570;-75
2024/03/01 06:32:24;;;;;;;92.95;45.50;;;4.70;99.90;;;;;;4949717;28;20042;-74
2024/03/01 06:34:52;;;;;;;97.68;45.65;;;4.80;99.90;;;;;;4971286;28;20073;-75
2024/03/01 06:37:19;;;;;;;90.20;44.28;;;4.80;99.90;;;;;;4959732;28;20042;-75
2024/03/01 06:39:45;;;;;;;97.40;45.15;;;4.90;99.90;;;;;;4963064;28;20511;-75
2024/03/01 06:42:12;;;;;;;92.78;41.72;;;5.00;99.90;;;;;;4968965;28;20058;-74
2024/03/01 06:44:39;;;;;;;97.38;45.00;;;5.10;99.90;;;;;;4964917;28;20046;-75
2024/03/01 06:47:06;;;;;;;91.03;42.55;;;5.10;99.90;;;;;;4973223;28;20613;-75
2024/03/01 06:49:41;;;;;;;89.03;45.33;;;5.30;99.90;;;;;;4973580;28;20046;-76
2024/03/01 06:52:10;;;;;;;89.63;44.30;;;5.20;99.90;;;;;;4956520;28;20038;-76
2024/03/01 06:54:36;;;;;;;90.93;44.55;;;5.20;99.90;;;;;;4958539;28;20515;-75
2024/03/01 06:57:03;;;;;;;89.68;40.70;;;5.20;99.90;;;;;;4967685;28;20042;-75
2024/03/01 06:59:30;;;;;;;84.03;40.85;;;5.30;99.90;;;;;;4968479;28;20038;-74
2024/03/01 07:01:57;;;;;;;81.45;41.97;;;5.30;99.90;;;;;;4950117;28;20110;-75
2024/03/01 07:04:24;;;;;;;75.38;41.92;;;5.30;99.90;;;;;;4977741;28;20181;-78
2024/03/01 07:06:51;;;;;;;81.57;41.78;;;5.40;99.90;;;;;;4976042;28;20686;-77
2024/03/01 07:09:19;;;;;;;72.95;36.78;;;5.50;99.90;;;;;;4963676;28;20051;-77
2024/03/01 07:11:46;;;;;;;77.18;39.35;;;5.60;99.90;;;;;;4968380;28;20051;-76
2024/03/01 07:14:12;;;;;;;82.60;42.42;;;5.60;99.90;;;;;;4931623;28;20779;-77
2024/03/01 07:16:40;;;;;;;81.53;43.03;;;5.70;99.90;;;;;;4949350;28;20073;-76
2024/03/01 07:19:06;;;;;;;80.90;41.50;;;5.70;99.90;;;;;;4948300;28;20047;-76
2024/03/01 07:21:35;;;;;;;79.05;42.15;;;5.70;99.90;;;;;;4946167;28;20553;-76
2024/03/01 07:24:03;;;;;;;80.22;42.75;;;5.70;99.90;;;;;;4941312;28;20046;-75
2024/03/01 07:26:30;;;;;;;77.22;42.35;;;5.70;99.90;;;;;;4947834;28;20116;-75
2024/03/01 07:28:57;;;;;;;78.85;42.05;;;5.70;99.90;;;;;;4943431;28;20050;-76
2024/03/01 07:31:24;;;;;;;76.88;41.05;;;5.70;99.90;;;;;;4959826;28;20039;-75
2024/03/01 07:33:51;;;;;;;76.03;41.58;;;5.70;99.90;;;;;;4950400;28;20173;-76
2024/03/01 07:36:18;;;;;;;76.38;41.00;;;5.80;99.90;;;;;;4947604;28;20058;-75
2024/03/01 07:38:45;;;;;;;82.57;42.30;;;5.80;99.90;;;;;;4946518;28;20035;-75
2024/03/01 07:41:12;;;;;;;74.78;43.90;;;5.90;99.90;;;;;;4945655;28;20039;-76
2024/03/01 07:43:39;;;;;;;80.32;42.80;;;5.90;99.90;;;;;;4941386;28;20063;-76
2024/03/01 07:46:06;;;;;;;81.47;43.03;;;5.90;99.90;;;;;;4957708;28;20776;-76
2024/03/01 07:48:33;;;;;;;75.57;45.75;;;6.00;99.90;;;;;;4962206;28;20050;-76
2024/03/01 07:51:02;;;;;;;85.43;44.55;;;6.10;99.90;;;;;;4949746;28;20050;-75
2024/03/01 07:53:30;;;;;;;83.82;46.35;;;6.10;99.90;;;;;;4965695;28;20097;-76
2024/03/01 07:55:57;;;;;;;74.80;43.53;;;6.20;99.90;;;;;;4963337;28;20077;-75
2024/03/01 07:58:24;;;;;;;81.82;47.15;;;6.30;99.90;;;;;;4950832;28;20107;-75
2024/03/01 08:00:51;;;;;;;80.30;44.92;;;6.30;99.90;;;;;;4951459;28;20097;-74
2024/03/01 08:03:18;;;;;;;81.00;47.95;;;6.30;99.90;;;;;;4946957;28;21508;-75
2024/03/01 08:05:46;;;;;;;77.40;43.03;;;6.40;99.90;;;;;;4946561;28;20292;-74
2024/03/01 08:08:24;;;;;;;71.72;46.65;;;6.40;99.90;;;;;;4932771;28;20051;-75
2024/03/01 08:10:50;;;;;;;77.13;47.58;;;6.40;99.90;;;;;;4949751;28;20066;-75
2024/03/01 08:13:18;;;;;;;92.03;48.17;;;6.50;99.90;;;;;;4956596;28;20046;-76
2024/03/01 08:15:45;;;;;;;72.25;45.67;;;6.60;99.90;;;;;;4949983;28;20640;-75
2024/03/01 08:18:25;;;;;;;82.03;45.90;;;6.70;99.90;;;;;;4962014;28;20150;-75
2024/03/01 08:20:51;;;;;;;79.47;46.25;;;6.70;99.90;;;;;;4962043;28;20106;-75
2024/03/01 08:23:18;;;;;;;79.80;45.10;;;6.90;99.90;;;;;;4947954;28;20051;-75
2024/03/01 08:25:45;;;;;;;75.28;45.47;;;7.00;99.90;;;;;;4944632;28;20569;-74
2024/03/01 08:28:21;;;;;;;75.85;49.17;;;7.20;99.90;;;;;;4945228;28;20138;-75
2024/03/01 08:30:48;;;;;;;74.93;49.22;;;7.40;99.90;;;;;;4958488;28;20490;-75
2024/03/01 08:33:19;;;;;;;78.20;50.17;;;7.70;99.90;;;;;;4951449;28;20605;-75
2024/03/01 08:35:47;;;;;;;72.78;53.35;;;8.10;99.90;;;;;;4946394;28;20131;-75
2024/03/01 08:38:49;;;;;;;66.43;47.88;;;8.30;99.90;;;;;;4948468;28;20141;-75
2024/03/01 08:41:16;;;;;;;70.30;50.63;;;8.60;99.90;;;;;;4927684;28;20059;-76
2024/03/01 08:43:43;;;;;;;70.13;54.97;;;8.70;99.90;;;;;;4947875;28;20059;-75
2024/03/01 08:46:31;;;;;;;66.32;51.47;;;9.00;99.90;;;;;;4957068;28;20051;-76
2024/03/01 08:49:23;;;;;;;67.03;48.00;;;9.20;99.90;;;;;;4962857;28;20301;-76
2024/03/01 08:51:49;;;;;;;62.97;51.25;;;9.40;99.90;;;;;;4963949;28;20059;-75
2024/03/01 08:54:20;;;;;;;63.88;49.28;;;9.30;99.90;;;;;;4966645;28;20050;-75
2024/03/01 08:57:04;;;;;;;63.10;53.40;;;9.50;99.90;;;;;;4963965;28;20050;-75
2024/03/01 08:59:49;;;;;;;57.90;48.47;;;9.40;99.90;;;;;;4964069;28;20603;-75
2024/03/01 09:02:48;;;;;;;59.88;52.25;;;9.30;99.90;;;;;;4965795;28;20049;-75
2024/03/01 09:05:15;;;;;;;63.90;51.92;;;9.40;99.90;;;;;;4960261;28;20581;-78
2024/03/01 09:07:43;;;;;;;59.85;48.35;;;9.60;99.90;;;;;;4964887;28;20134;-75
2024/03/01 09:10:28;;;;;;;63.30;51.35;;;9.60;99.90;;;;;;4954893;28;20133;-74
2024/03/01 09:12:55;;;;;;;64.55;45.75;;;9.00;99.90;;;;;;4958535;28;20054;-75
2024/03/01 09:15:25;;;;;;;61.40;49.15;;;8.50;99.90;;;;;;4959409;28;20050;-75
2024/03/01 09:17:54;;;;;;;64.63;50.75;;;8.60;99.90;;;;;;4961928;28;20069;-75
2024/03/01 09:20:39;;;;;;;70.40;49.72;;;8.70;99.90;;;;;;4959150;28;20061;-75
2024/03/01 09:23:12;;;;;;;58.40;47.33;;;9.00;99.90;;;;;;4952269;28;20101;-75
2024/03/01 09:25:48;;;;;;;62.08;48.78;;;9.00;99.90;;;;;;4964134;28;20791;-76
2024/03/01 09:28:17;;;;;;;59.00;49.05;;;9.10;99.90;;;;;;4960526;28;20061;-75
2024/03/01 09:30:46;;;;;;;60.22;50.33;;;9.20;99.90;;;;;;4964645;28;20070;-76
2024/03/01 09:33:16;;;;;;;59.95;47.67;;;9.40;99.90;;;;;;4969863;28;20072;-80
2024/03/01 09:35:50;;;;;;;55.08;41.72;;;9.20;99.90;;;;;;4965036;28;20059;-79
2024/03/01 09:38:18;;;;;;;56.25;43.58;;;9.20;99.90;;;;;;4967883;28;20128;-80
2024/03/01 09:40:50;;;;;;;62.60;46.75;;;8.90;99.90;;;;;;4966667;28;20093;-80
2024/03/01 09:43:21;;;;;;;58.78;44.83;;;8.70;99.90;;;;;;4981499;28;20060;-77
2024/03/01 09:45:57;;;;;;;63.47;43.28;;;8.50;99.90;;;;;;4977111;28;20150;-77
2024/03/01 09:49:13;;;;;;;64.20;45.88;;;8.40;99.90;;;;;;4982570;28;20062;-78
2024/03/01 09:52:18;;;;;;;55.85;40.13;;;8.50;99.90;;;;;;4970264;28;20650;-78
2024/03/01 09:54:48;;;;;;;55.08;40.30;;;8.40;99.90;;;;;;4927555;28;20054;-80
2024/03/01 09:57:26;;;;;;;61.17;42.20;;;8.20;99.90;;;;;;4954200;28;20049;-80
2024/03/01 10:00:37;;;;;;;67.22;44.38;;;8.20;99.90;;;;;;4955179;28;20153;-76
2024/03/01 10:03:23;;;;;;;65.25;43.55;;;8.20;99.90;;;;;;4931021;29;20042;-77
2024/03/01 10:06:05;;;;;;;68.20;47.38;;;8.40;99.90;;;;;;4960468;28;20058;-78
2024/03/01 10:09:04;;;;;;;60.25;43.50;;;8.50;99.90;;;;;;4947617;28;20058;-77
2024/03/01 10:11:53;;;;;;;68.10;44.90;;;8.70;99.90;;;;;;4954286;28;20050;-77
2024/03/01 10:14:20;;;;;;;60.38;43.15;;;8.70;99.90;;;;;;4966495;28;20054;-78
2024/03/01 10:17:05;;;;;;;62.78;43.83;;;8.60;99.90;;;;;;4954763;28;20054;-77
2024/03/01 10:20:09;;;;;;;66.75;45.15;;;8.70;99.90;;;;;;4979191;28;20695;-77
2024/03/01 10:23:15;;;;;;;52.47;39.67;;;8.60;99.90;;;;;;4952897;28;20064;-80
2024/03/01 10:25:55;;;;;;;57.28;42.15;;;8.50;99.90;;;;;;4964393;28;20433;-78
2024/03/01 10:28:36;;;;;;;57.97;41.90;;;8.50;99.90;;;;;;4976585;28;20055;-80
2024/03/01 10:31:21;;;;;;;62.05;42.50;;;8.60;99.90;;;;;;4972479;28;20074;-79
2024/03/01 10:33:52;;;;;;;;;;;8.70;99.90;;;;;;4966607;28;20065;-80
2024/03/01 10:36:43;;;;;;;57.78;40.50;;;8.80;99.90;;;;;;4973779;28;19953;-79
2024/03/01 10:39:29;;;;;;;55.58;39.83;;;8.90;99.90;;;;;;4955051;28;20762;-79
2024/03/01 10:42:09;;;;;;;55.33;42.38;;;9.10;99.90;;;;;;4949962;28;20414;-79
2024/03/01 10:44:40;;;;;;;57.78;43.45;;;9.20;99.90;;;;;;4953967;28;20051;-79
2024/03/01 10:47:21;;;;;;;51.65;37.40;;;9.30;99.90;;;;;;4979684;28;20138;-79
2024/03/01 10:50:01;;;;;;;55.47;41.55;;;9.40;99.90;;;;;;4967919;28;20525;-78
2024/03/01 10:52:35;;;;;;;47.80;39.38;;;9.50;99.90;;;;;;4967470;28;20050;-80
2024/03/01 10:55:10;;;;;;;52.22;41.33;;;9.70;99.90;;;;;;4966221;28;20042;-79
2024/03/01 10:58:03;;;;;;;47.22;38.67;;;9.70;99.90;;;;;;4947930;28;20054;-80
2024/03/01 11:00:35;;;;;;;56.45;42.72;;;9.60;99.90;;;;;;4960028;28;20105;-78
2024/03/01 11:03:23;;;;;;;52.00;40.17;;;9.70;99.90;;;;;;4946363;28;20860;-79
2024/03/01 11:06:07;;;;;;;52.00;40.03;;;10.00;99.90;;;;;;4959531;28;20179;-79
2024/03/01 11:08:55;;;;;;;54.38;41.47;;;10.20;99.90;;;;;;4961106;28;20051;-80
2024/03/01 11:12:05;;;;;;;47.90;40.63;;;10.30;99.90;;;;;;4945762;28;20047;-79
2024/03/01 11:14:36;;;;;;;46.17;41.00;;;10.30;99.90;;;;;;4947326;28;20205;-79
2024/03/01 11:17:06;;;;;;;43.95;39.28;;;10.60;99.90;;;;;;4963315;28;20458;-79
2024/03/01 11:19:34;;;;;;;46.95;41.70;;;10.70;99.90;;;;;;4949536;28;20051;-78
2024/03/01 11:22:27;;;;;;;60.95;44.65;;;10.80;99.90;;;;;;4972563;28;21012;-80
2024/03/01 11:25:07;;;;;;;48.03;42.88;;;10.80;99.90;;;;;;4982864;28;20192;-80
2024/03/01 11:27:53;;;;;;;48.65;43.47;;;10.80;99.90;;;;;;4951085;28;20061;-79
2024/03/01 11:30:25;;;;;;;51.00;41.63;;;10.70;99.90;;;;;;4952489;28;20058;-79
2024/03/01 11:33:00;;;;;;;45.88;40.90;;;10.70;99.90;;;;;;4959418;28;20050;-79
2024/03/01 11:35:44;;;;;;;42.92;38.58;;;10.70;99.90;;;;;;4946397;28;20042;-79
2024/03/01 11:38:29;;;;;;;46.17;40.40;;;10.80;99.90;;;;;;4949930;28;20119;-79
2024/03/01 11:41:01;;;;;;;41.72;37.63;;;10.80;99.90;;;;;;4939262;28;20053;-80
2024/03/01 11:43:53;;;;;;;42.83;38.25;;;10.70;99.90;;;;;;4965581;28;20045;-79
2024/03/01 11:46:50;;;;;;;46.47;41.47;;;10.60;99.90;;;;;;4975158;28;20109;-77
2024/03/01 11:49:57;;;;;;;41.38;37.08;;;10.90;99.90;;;;;;4963425;28;20081;-77
2024/03/01 11:52:47;;;;;;;45.67;41.15;;;11.00;99.90;;;;;;4947473;28;20054;-77
2024/03/01 11:55:20;;;;;;;39.72;35.72;;;11.10;99.90;;;;;;4931756;28;20062;-75
2024/03/01 11:58:14;;;;;;;45.88;41.15;;;11.20;99.90;;;;;;4951264;28;20062;-76
2024/03/01 12:00:58;;;;;;;42.42;38.33;;;11.40;99.90;;;;;;4920242;28;20050;-77
2024/03/01 12:03:55;;;;;;;45.85;41.60;;;11.30;99.90;;;;;;4950823;28;20050;-77
2024/03/01 12:06:31;;;;;;;42.97;38.78;;;11.40;99.90;;;;;;4961144;28;20081;-77
2024/03/01 12:09:47;;;;;;;42.75;38.20;;;11.30;99.90;;;;;;4953288;28;20049;-76
2024/03/01 12:12:33;;;;;;;45.13;40.78;;;11.30;99.90;;;;;;4933936;28;21251;-77
2024/03/01 12:15:08;;;;;;;46.42;42.40;;;11.30;99.90;;;;;;4937085;28;20055;-79
2024/03/01 12:17:57;;;;;;;45.13;40.95;;;11.30;99.90;;;;;;4939305;28;20113;-82
2024/03/01 12:20:26;;;;;;;44.38;40.25;;;11.10;99.90;;;;;;4946417;28;20047;-75
2024/03/01 12:23:08;;;;;;;45.22;41.33;;;11.20;99.90;;;;;;4948683;28;20047;-75
2024/03/01 12:25:38;;;;;;;45.75;41.47;;;11.00;99.90;;;;;;4944003;28;20046;-76
2024/03/01 12:28:14;;;;;;;43.80;39.95;;;10.80;99.90;;;;;;4946981;28;20050;-73
2024/03/01 12:31:34;;;;;;;41.90;37.88;;;10.80;99.90;;;;;;4959652;28;20672;-72
2024/03/01 12:34:07;;;;;;;42.70;38.47;;;10.80;99.90;;;;;;4942444;28;20850;-74
2024/03/01 12:36:41;;;;;;;41.50;37.90;;;10.70;99.90;;;;;;4959646;28;20149;-73
2024/03/01 12:39:20;;;;;;;42.10;38.05;;;10.80;99.90;;;;;;4966185;28;20047;-75
2024/03/01 12:42:14;;;;;;;47.83;42.70;;;10.80;99.90;;;;;;4965301;28;20138;-73
2024/03/01 12:44:51;;;;;;;42.07;38.30;;;10.90;99.90;;;;;;4962525;28;20066;-74
2024/03/01 12:47:53;;;;;;;40.22;36.90;;;11.10;99.90;;;;;;4944086;28;20735;-74
2024/03/01 12:50:34;;;;;;;42.50;38.35;;;11.50;99.90;;;;;;4942757;28;20086;-73
2024/03/01 12:53:30;;;;;;;41.92;37.88;;;11.90;99.90;;;;;;4943476;28;20055;-72
2024/03/01 12:56:25;;;;;;;46.22;41.60;;;11.70;99.90;;;;;;4937615;28;20050;-73
2024/03/01 12:59:11;;;;;;;46.55;41.47;;;11.20;99.90;;;;;;4926495;28;20061;-72
2024/03/01 13:02:14;;;;;;;41.72;37.47;;;11.10;99.90;;;;;;4935360;28;20047;-72